createdAt,value
2023-02-18T00:00:18.433Z,12.10
2023-02-18T00:02:46.024Z,12.10
2023-02-18T00:05:13.902Z,12.10
2023-02-18T00:07:41.783Z,12.00
2023-02-18T00:10:11.502Z,12.00
2023-02-18T00:12:38.595Z,12.00
2023-02-18T00:15:06.010Z,12.00
2023-02-18T00:17:32.830Z,12.00
2023-02-18T00:19:59.805Z,12.00
2023-02-18T00:22:26.647Z,12.00
2023-02-18T00:24:53.613Z,12.00
2023-02-18T00:27:20.486Z,12.00
2023-02-18T00:29:47.399Z,12.10
2023-02-18T00:32:14.260Z,12.10
2023-02-18T00:34:41.202Z,12.10
2023-02-18T00:37:08.023Z,12.10
2023-02-18T00:39:34.875Z,12.10
2023-02-18T00:42:01.764Z,12.20
2023-02-18T00:44:28.607Z,12.20
2023-02-18T00:46:55.484Z,12.20
2023-02-18T00:49:22.427Z,12.30
2023-02-18T00:51:49.364Z,12.30
2023-02-18T00:54:16.311Z,12.30
2023-02-18T00:56:43.287Z,12.30
2023-02-18T00:59:10.315Z,12.30
2023-02-18T01:01:37.362Z,12.30
2023-02-18T01:04:04.345Z,12.30
2023-02-18T01:06:31.253Z,12.30
2023-02-18T01:08:58.193Z,12.40
2023-02-18T01:11:25.352Z,12.40
2023-02-18T01:13:52.729Z,12.40
2023-02-18T01:16:19.781Z,12.40
2023-02-18T01:18:46.922Z,12.40
2023-02-18T01:21:13.856Z,12.30
2023-02-18T01:23:41.562Z,12.40
2023-02-18T01:26:09.377Z,12.40
2023-02-18T01:28:37.097Z,12.40
2023-02-18T01:31:06.872Z,12.40
2023-02-18T01:33:34.468Z,12.30
2023-02-18T01:36:01.497Z,12.30
2023-02-18T01:38:28.399Z,12.30
2023-02-18T01:40:55.364Z,12.30
2023-02-18T01:43:22.537Z,12.30
2023-02-18T01:46:01.472Z,12.30
2023-02-18T01:48:31.412Z,12.30
2023-02-18T01:51:07.806Z,12.30
2023-02-18T01:53:45.384Z,12.30
2023-02-18T01:56:15.118Z,12.30
2023-02-18T01:58:43.508Z,12.30
2023-02-18T02:01:10.861Z,12.30
2023-02-18T02:03:37.782Z,12.30
2023-02-18T02:06:07.646Z,12.30
2023-02-18T02:08:34.698Z,12.30
2023-02-18T02:11:05.322Z,12.30
2023-02-18T02:13:42.791Z,12.30
2023-02-18T02:16:12.981Z,12.30
2023-02-18T02:18:39.829Z,12.30
2023-02-18T02:21:25.412Z,12.30
2023-02-18T02:24:04.483Z,12.30
2023-02-18T02:26:46.668Z,12.30
2023-02-18T02:29:41.548Z,12.30
2023-02-18T02:32:10.345Z,12.30
2023-02-18T02:34:55.375Z,12.30
2023-02-18T02:37:37.502Z,12.30
2023-02-18T02:40:07.500Z,12.30
2023-02-18T02:42:34.568Z,12.30
2023-02-18T02:45:10.187Z,12.30
2023-02-18T02:47:43.147Z,12.30
2023-02-18T02:50:12.616Z,12.30
2023-02-18T02:52:46.248Z,12.30
2023-02-18T02:55:13.788Z,12.30
2023-02-18T02:57:45.377Z,12.30
2023-02-18T03:00:13.617Z,12.30
2023-02-18T03:02:43.562Z,12.30
2023-02-18T03:05:19.647Z,12.30
2023-02-18T03:08:08.938Z,12.30
2023-02-18T03:10:51.716Z,12.30
2023-02-18T03:13:21.802Z,12.40
2023-02-18T03:16:08.122Z,12.40
2023-02-18T03:18:44.232Z,12.40
2023-02-18T03:21:31.990Z,12.40
2023-02-18T03:24:02.151Z,12.40
2023-02-18T03:26:30.488Z,12.40
2023-02-18T03:29:00.241Z,12.40
2023-02-18T03:31:28.874Z,12.40
2023-02-18T03:34:00.927Z,12.40
2023-02-18T03:36:28.862Z,12.40
2023-02-18T03:39:04.961Z,12.40
2023-02-18T03:41:32.632Z,12.40
2023-02-18T03:44:00.775Z,12.30
2023-02-18T03:46:28.502Z,12.30
2023-02-18T03:48:55.391Z,12.30
2023-02-18T03:51:22.596Z,12.30
2023-02-18T03:53:49.515Z,12.30
2023-02-18T03:56:17.360Z,12.20
2023-02-18T03:58:44.384Z,12.20
2023-02-18T04:01:11.329Z,12.20
2023-02-18T04:03:38.243Z,12.20
2023-02-18T04:06:05.761Z,12.20
2023-02-18T04:08:32.882Z,12.20
2023-02-18T04:10:59.872Z,12.20
2023-02-18T04:13:26.727Z,12.20
2023-02-18T04:15:53.657Z,12.20
2023-02-18T04:18:20.579Z,12.20
2023-02-18T04:20:47.520Z,12.20
2023-02-18T04:23:14.797Z,12.20
2023-02-18T04:25:41.637Z,12.20
2023-02-18T04:28:11.394Z,12.10
2023-02-18T04:30:38.387Z,12.10
2023-02-18T04:33:05.425Z,12.10
2023-02-18T04:35:32.435Z,12.10
2023-02-18T04:37:59.286Z,12.10
2023-02-18T04:40:30.006Z,12.10
2023-02-18T04:42:58.075Z,12.10
2023-02-18T04:45:25.380Z,12.10
2023-02-18T04:47:52.717Z,12.10
2023-02-18T04:50:20.230Z,12.10
2023-02-18T04:52:47.420Z,12.10
2023-02-18T04:55:14.253Z,12.10
2023-02-18T04:57:41.150Z,12.10
2023-02-18T05:00:09.025Z,12.10
2023-02-18T05:02:35.998Z,12.10
2023-02-18T05:05:02.827Z,12.10
2023-02-18T05:07:29.749Z,12.10
2023-02-18T05:09:56.637Z,12.10
2023-02-18T05:12:23.531Z,12.10
2023-02-18T05:14:50.386Z,12.10
2023-02-18T05:17:17.308Z,12.10
2023-02-18T05:19:44.216Z,12.10
2023-02-18T05:22:11.106Z,12.00
2023-02-18T05:24:37.984Z,12.00
2023-02-18T05:27:04.892Z,12.00
2023-02-18T05:29:31.695Z,12.00
2023-02-18T05:31:58.638Z,12.00
2023-02-18T05:34:25.439Z,11.90
2023-02-18T05:36:52.342Z,11.90
2023-02-18T05:39:19.181Z,11.90
2023-02-18T05:41:46.072Z,11.90
2023-02-18T05:44:31.290Z,11.90
2023-02-18T05:47:02.922Z,11.80
2023-02-18T05:49:30.039Z,11.80
2023-02-18T05:51:57.023Z,11.80
2023-02-18T05:54:23.935Z,11.80
2023-02-18T05:56:50.838Z,11.80
2023-02-18T05:59:18.140Z,11.80
2023-02-18T06:01:45.536Z,11.80
2023-02-18T06:04:12.436Z,11.80
2023-02-18T06:06:39.423Z,11.80
2023-02-18T06:09:06.863Z,11.80
2023-02-18T06:11:34.436Z,11.80
2023-02-18T06:14:01.395Z,11.90
2023-02-18T06:16:28.910Z,11.90
2023-02-18T06:18:55.912Z,11.90
2023-02-18T06:21:22.839Z,11.90
2023-02-18T06:23:49.684Z,11.90
2023-02-18T06:26:16.556Z,11.90
2023-02-18T06:28:43.518Z,11.90
2023-02-18T06:31:10.501Z,11.90
2023-02-18T06:33:37.423Z,11.90
2023-02-18T06:36:09.153Z,11.90
2023-02-18T06:38:36.729Z,11.90
2023-02-18T06:41:03.642Z,12.00
2023-02-18T06:43:30.558Z,12.00
2023-02-18T06:45:57.480Z,12.00
2023-02-18T06:48:28.410Z,12.00
2023-02-18T06:50:55.434Z,12.00
2023-02-18T06:53:22.344Z,12.00
2023-02-18T06:55:50.009Z,12.00
2023-02-18T06:58:16.925Z,12.00
2023-02-18T07:00:44.396Z,12.00
2023-02-18T07:03:12.869Z,12.00
2023-02-18T07:05:39.919Z,11.90
2023-02-18T07:08:06.766Z,11.90
2023-02-18T07:10:33.777Z,11.90
2023-02-18T07:13:00.629Z,11.90
2023-02-18T07:15:28.153Z,11.90
2023-02-18T07:17:55.155Z,11.90
2023-02-18T07:20:22.824Z,11.90
2023-02-18T07:22:50.461Z,11.90
2023-02-18T07:25:17.421Z,11.90
2023-02-18T07:27:44.397Z,11.90
2023-02-18T07:30:11.812Z,11.90
2023-02-18T07:32:38.760Z,11.90
2023-02-18T07:35:06.314Z,11.90
2023-02-18T07:37:33.645Z,11.90
2023-02-18T07:40:00.594Z,11.90
2023-02-18T07:42:27.727Z,11.90
2023-02-18T07:44:54.598Z,11.90
2023-02-18T07:47:21.553Z,11.90
2023-02-18T07:49:48.396Z,11.90
2023-02-18T07:52:18.795Z,11.90
2023-02-18T07:54:45.752Z,11.80
2023-02-18T07:57:12.587Z,11.80
2023-02-18T07:59:39.582Z,11.80
2023-02-18T08:02:08.070Z,11.90
2023-02-18T08:04:35.069Z,11.90
2023-02-18T08:07:02.009Z,11.90
2023-02-18T08:09:28.958Z,11.90
2023-02-18T08:11:55.922Z,11.90
2023-02-18T08:14:22.788Z,12.00
2023-02-18T08:16:49.631Z,12.00
2023-02-18T08:19:16.553Z,12.10
2023-02-18T08:21:43.394Z,12.10
2023-02-18T08:24:10.358Z,12.10
2023-02-18T08:26:37.335Z,12.20
2023-02-18T08:29:04.751Z,12.20
2023-02-18T08:31:31.940Z,12.20
2023-02-18T08:34:00.609Z,12.30
2023-02-18T08:36:28.233Z,12.40
2023-02-18T08:38:55.248Z,12.40
2023-02-18T08:41:22.162Z,12.50
2023-02-18T08:43:49.048Z,12.60
2023-02-18T08:46:25.189Z,12.60
2023-02-18T08:49:01.825Z,12.70
2023-02-18T08:51:29.175Z,12.80
2023-02-18T08:53:56.072Z,12.90
2023-02-18T08:56:22.926Z,12.90
2023-02-18T08:58:49.766Z,12.90
2023-02-18T09:01:16.871Z,13.00
2023-02-18T09:03:43.968Z,13.10
2023-02-18T09:06:11.767Z,13.40
2023-02-18T09:08:38.602Z,13.60
2023-02-18T09:11:06.390Z,13.90
2023-02-18T09:13:34.136Z,14.10
2023-02-18T09:16:02.048Z,14.30
2023-02-18T09:18:29.043Z,14.40
2023-02-18T09:20:57.271Z,14.40
2023-02-18T09:23:24.937Z,14.30
2023-02-18T09:25:51.868Z,14.20
2023-02-18T09:28:18.836Z,14.00
2023-02-18T09:30:46.004Z,13.90
2023-02-18T09:33:12.931Z,13.70
2023-02-18T09:35:43.113Z,13.60
2023-02-18T09:38:10.934Z,13.50
2023-02-18T09:40:39.680Z,13.40
2023-02-18T09:43:06.931Z,13.30
2023-02-18T09:45:33.975Z,13.30
2023-02-18T09:48:01.550Z,13.30
2023-02-18T09:50:34.751Z,13.30
2023-02-18T09:53:10.266Z,13.30
2023-02-18T09:55:39.539Z,13.40
2023-02-18T09:58:12.651Z,13.60
2023-02-18T10:00:44.460Z,13.80
2023-02-18T10:03:21.995Z,14.10
2023-02-18T10:05:48.897Z,14.30
2023-02-18T10:08:25.034Z,14.30
2023-02-18T10:10:51.942Z,14.30
2023-02-18T10:13:23.135Z,14.30
2023-02-18T10:15:50.535Z,14.30
2023-02-18T10:18:26.248Z,14.30
2023-02-18T10:20:56.365Z,14.40
2023-02-18T10:23:24.822Z,14.40
2023-02-18T10:25:52.049Z,14.70
2023-02-18T10:28:22.472Z,14.90
2023-02-18T10:30:56.209Z,15.10
2023-02-18T10:33:32.288Z,15.10
2023-02-18T10:36:02.187Z,15.10
2023-02-18T10:38:47.926Z,15.10
2023-02-18T10:41:29.094Z,15.20
2023-02-18T10:44:02.375Z,15.20
2023-02-18T10:46:29.283Z,15.40
2023-02-18T10:48:59.267Z,15.50
2023-02-18T10:51:28.622Z,15.60
2023-02-18T10:53:55.474Z,15.80
2023-02-18T10:56:40.878Z,16.00
2023-02-18T10:59:13.667Z,16.00
2023-02-18T11:01:41.342Z,16.10
2023-02-18T11:04:19.089Z,16.10
2023-02-18T11:06:47.210Z,16.10
2023-02-18T11:09:34.370Z,16.20
2023-02-18T11:12:08.259Z,16.30
2023-02-18T11:14:46.750Z,16.50
2023-02-18T11:17:17.707Z,16.60
2023-02-18T11:19:51.861Z,16.70
2023-02-18T11:22:20.839Z,16.60
2023-02-18T11:24:50.485Z,16.60
2023-02-18T11:27:37.638Z,16.70
2023-02-18T11:30:16.434Z,16.70
2023-02-18T11:32:44.147Z,16.80
2023-02-18T11:35:18.645Z,16.80
2023-02-18T11:37:45.687Z,16.90
2023-02-18T11:40:32.548Z,17.00
2023-02-18T11:43:05.969Z,17.00
2023-02-18T11:45:34.115Z,17.10
2023-02-18T11:48:01.815Z,17.30
2023-02-18T11:50:32.345Z,17.40
2023-02-18T11:53:00.033Z,17.50
2023-02-18T11:55:27.913Z,17.60
2023-02-18T11:57:59.340Z,17.60
2023-02-18T12:00:37.720Z,17.70
2023-02-18T12:03:08.339Z,17.80
2023-02-18T12:05:37.219Z,17.70
2023-02-18T12:08:09.961Z,17.60
2023-02-18T12:10:40.226Z,17.50
2023-02-18T12:13:22.701Z,17.50
2023-02-18T12:16:08.310Z,17.40
2023-02-18T12:18:54.241Z,17.40
2023-02-18T12:21:28.882Z,17.40
2023-02-18T12:24:10.980Z,17.40
2023-02-18T12:26:56.521Z,17.40
2023-02-18T12:29:26.456Z,17.40
2023-02-18T12:32:06.789Z,17.30
2023-02-18T12:34:44.134Z,17.30
2023-02-18T12:37:23.352Z,17.10
2023-02-18T12:39:56.334Z,17.00
2023-02-18T12:42:26.238Z,16.80
2023-02-18T12:44:53.065Z,16.70
2023-02-18T12:47:23.028Z,16.60
2023-02-18T12:49:59.018Z,16.50
2023-02-18T12:52:55.246Z,16.50
2023-02-18T12:55:45.425Z,16.50
2023-02-18T12:58:15.177Z,16.50
2023-02-18T13:00:45.232Z,16.60
2023-02-18T13:03:31.394Z,16.60
2023-02-18T13:06:04.175Z,16.70
2023-02-18T13:08:45.287Z,16.70
2023-02-18T13:11:18.273Z,16.80
2023-02-18T13:14:03.824Z,16.80
2023-02-18T13:16:31.755Z,16.80
2023-02-18T13:19:05.676Z,16.80
2023-02-18T13:21:32.750Z,16.80
2023-02-18T13:24:07.574Z,16.80
2023-02-18T13:26:35.140Z,16.80
2023-02-18T13:29:04.817Z,16.90
2023-02-18T13:31:50.426Z,16.90
2023-02-18T13:34:26.104Z,16.90
2023-02-18T13:37:12.291Z,16.90
2023-02-18T13:39:46.323Z,16.90
2023-02-18T13:42:31.742Z,16.90
2023-02-18T13:44:58.753Z,16.80
2023-02-18T13:47:44.206Z,16.70
2023-02-18T13:50:16.306Z,16.60
2023-02-18T13:52:44.690Z,16.50
2023-02-18T13:55:22.992Z,16.30
2023-02-18T13:57:53.630Z,16.20
2023-02-18T14:00:26.183Z,16.20
2023-02-18T14:03:00.774Z,16.20
2023-02-18T14:05:39.448Z,16.20
2023-02-18T14:08:12.839Z,16.10
2023-02-18T14:10:40.051Z,16.10
2023-02-18T14:13:10.030Z,16.10
2023-02-18T14:15:36.987Z,16.10
2023-02-18T14:18:13.144Z,16.10
2023-02-18T14:20:40.034Z,16.10
2023-02-18T14:23:19.151Z,16.00
2023-02-18T14:26:04.862Z,16.00
2023-02-18T14:28:34.542Z,16.00
2023-02-18T14:31:06.218Z,15.90
2023-02-18T14:33:35.744Z,15.90
2023-02-18T14:36:09.982Z,15.80
2023-02-18T14:38:46.073Z,15.80
2023-02-18T14:41:31.706Z,15.70
2023-02-18T14:44:01.890Z,15.70
2023-02-18T14:46:52.623Z,15.70
2023-02-18T14:49:19.483Z,15.70
2023-02-18T14:51:48.353Z,15.60
2023-02-18T14:54:18.014Z,15.60
2023-02-18T14:57:05.204Z,15.60
2023-02-18T14:59:35.213Z,15.60
2023-02-18T15:02:02.194Z,15.60
2023-02-18T15:04:29.473Z,15.60
2023-02-18T15:07:00.225Z,15.60
2023-02-18T15:09:27.260Z,15.60
2023-02-18T15:12:04.733Z,15.60
2023-02-18T15:14:34.234Z,15.60
2023-02-18T15:17:01.584Z,15.60
2023-02-18T15:19:30.346Z,15.60
2023-02-18T15:21:57.764Z,15.60
2023-02-18T15:24:33.461Z,15.60
2023-02-18T15:27:02.162Z,15.60
2023-02-18T15:29:30.332Z,15.60
2023-02-18T15:31:58.081Z,15.50
2023-02-18T15:34:25.032Z,15.50
2023-02-18T15:36:52.500Z,15.40
2023-02-18T15:39:19.409Z,15.40
2023-02-18T15:41:47.057Z,15.40
2023-02-18T15:44:20.648Z,15.30
2023-02-18T15:46:47.594Z,15.30
2023-02-18T15:49:21.157Z,15.30
2023-02-18T15:51:48.868Z,15.20
2023-02-18T15:54:17.711Z,15.20
2023-02-18T15:56:45.790Z,15.20
2023-02-18T15:59:26.391Z,15.10
2023-02-18T16:01:57.976Z,15.10
2023-02-18T16:04:29.017Z,15.00
2023-02-18T16:06:56.669Z,15.00
2023-02-18T16:09:25.961Z,15.00
2023-02-18T16:11:54.996Z,14.90
2023-02-18T16:14:23.763Z,14.90
2023-02-18T16:17:07.662Z,14.90
2023-02-18T16:19:35.160Z,14.80
2023-02-18T16:22:08.263Z,14.80
2023-02-18T16:24:40.515Z,14.80
2023-02-18T16:27:15.062Z,14.70
2023-02-18T16:29:42.396Z,14.70
2023-02-18T16:32:09.402Z,14.60
2023-02-18T16:34:36.417Z,14.60
2023-02-18T16:37:22.236Z,14.60
2023-02-18T16:39:52.271Z,14.60
2023-02-18T16:42:19.160Z,14.50
2023-02-18T16:44:48.195Z,14.50
2023-02-18T16:47:16.507Z,14.50
2023-02-18T16:49:45.331Z,14.50
2023-02-18T16:52:13.445Z,14.50
2023-02-18T16:54:40.310Z,14.50
2023-02-18T16:57:07.312Z,14.50
2023-02-18T16:59:34.170Z,14.50
2023-02-18T17:02:01.130Z,14.50
2023-02-18T17:04:28.083Z,14.50
2023-02-18T17:06:54.977Z,14.50
2023-02-18T17:09:23.070Z,14.50
2023-02-18T17:11:50.900Z,14.50
2023-02-18T17:14:19.296Z,14.50
2023-02-18T17:16:47.307Z,14.50
2023-02-18T17:19:14.346Z,14.50
2023-02-18T17:21:41.258Z,14.50
2023-02-18T17:24:12.223Z,14.50
2023-02-18T17:26:39.111Z,14.50
2023-02-18T17:29:06.077Z,14.50
2023-02-18T17:31:44.771Z,14.50
2023-02-18T17:34:16.863Z,14.50
2023-02-18T17:36:46.452Z,14.50
2023-02-18T17:39:14.522Z,14.40
2023-02-18T17:41:41.862Z,14.40
2023-02-18T17:44:14.884Z,14.40
2023-02-18T17:46:41.738Z,14.40
2023-02-18T17:49:08.744Z,14.40
2023-02-18T17:51:37.225Z,14.40
2023-02-18T17:54:04.488Z,14.40
2023-02-18T17:56:31.523Z,14.40
2023-02-18T17:58:58.425Z,14.40
2023-02-18T18:01:25.448Z,14.40
2023-02-18T18:03:52.337Z,14.40
2023-02-18T18:06:20.441Z,14.40
2023-02-18T18:08:48.068Z,14.30
2023-02-18T18:11:17.765Z,14.30
2023-02-18T18:13:44.855Z,14.30
2023-02-18T18:16:12.459Z,14.30
2023-02-18T18:18:41.239Z,14.30
2023-02-18T18:21:16.220Z,14.30
2023-02-18T18:23:43.164Z,14.30
2023-02-18T18:26:10.202Z,14.30
2023-02-18T18:28:37.734Z,14.30
2023-02-18T18:31:04.915Z,14.30
2023-02-18T18:33:33.012Z,14.30
2023-02-18T18:36:00.485Z,14.30
2023-02-18T18:38:28.115Z,14.30
2023-02-18T18:40:55.613Z,14.20
2023-02-18T18:43:25.548Z,14.20
2023-02-18T18:45:52.587Z,14.20
2023-02-18T18:48:23.035Z,14.20
2023-02-18T18:50:50.771Z,14.20
2023-02-18T18:53:25.168Z,14.20
2023-02-18T18:55:53.269Z,14.20
2023-02-18T18:58:24.888Z,14.20
2023-02-18T19:00:55.779Z,14.20
2023-02-18T19:03:23.408Z,14.10
2023-02-18T19:05:51.268Z,14.20
2023-02-18T19:08:20.367Z,14.20
2023-02-18T19:10:55.161Z,14.10
2023-02-18T19:13:23.496Z,14.10
2023-02-18T19:15:51.602Z,14.10
2023-02-18T19:18:19.543Z,14.10
2023-02-18T19:20:47.508Z,14.10
2023-02-18T19:23:14.646Z,14.10
2023-02-18T19:25:41.688Z,14.10
2023-02-18T19:28:10.469Z,14.10
2023-02-18T19:30:37.410Z,14.10
2023-02-18T19:33:05.360Z,14.10
2023-02-18T19:35:32.657Z,14.10
2023-02-18T19:38:00.621Z,14.10
2023-02-18T19:40:29.990Z,14.10
2023-02-18T19:42:57.407Z,14.10
2023-02-18T19:45:24.538Z,14.10
2023-02-18T19:47:54.840Z,14.00
2023-02-18T19:50:21.888Z,14.10
2023-02-18T19:52:52.151Z,14.10
2023-02-18T19:55:19.076Z,14.00
2023-02-18T19:57:46.024Z,14.00
2023-02-18T20:00:13.783Z,14.00
2023-02-18T20:02:40.979Z,14.00
2023-02-18T20:05:08.510Z,14.00
2023-02-18T20:07:38.488Z,14.00
2023-02-18T20:10:05.820Z,14.00
2023-02-18T20:12:32.769Z,14.00
2023-02-18T20:14:59.652Z,14.00
2023-02-18T20:17:26.514Z,14.00
2023-02-18T20:19:53.427Z,14.00
2023-02-18T20:22:20.346Z,14.00
2023-02-18T20:24:48.124Z,14.00
2023-02-18T20:27:15.078Z,14.00
2023-02-18T20:29:42.118Z,14.00
2023-02-18T20:32:09.350Z,14.00
2023-02-18T20:34:36.447Z,14.00
2023-02-18T20:37:03.424Z,14.00
2023-02-18T20:39:30.346Z,14.00
2023-02-18T20:41:59.298Z,14.00
2023-02-18T20:44:30.019Z,14.00
2023-02-18T20:46:56.943Z,14.00
2023-02-18T20:49:23.939Z,14.00
2023-02-18T20:51:50.815Z,14.00
2023-02-18T20:54:19.785Z,14.00
2023-02-18T20:56:47.956Z,14.00
2023-02-18T20:59:16.028Z,13.90
2023-02-18T21:01:43.906Z,13.90
2023-02-18T21:04:11.882Z,13.90
2023-02-18T21:06:40.753Z,13.90
2023-02-18T21:09:08.951Z,13.90
2023-02-18T21:11:36.465Z,13.90
2023-02-18T21:14:04.921Z,13.90
2023-02-18T21:16:50.248Z,13.90
2023-02-18T21:19:18.513Z,13.90
2023-02-18T21:21:47.118Z,13.90
2023-02-18T21:24:15.153Z,13.90
2023-02-18T21:26:42.917Z,13.90
2023-02-18T21:29:09.868Z,13.90
2023-02-18T21:31:40.765Z,13.90
2023-02-18T21:34:10.151Z,13.90
2023-02-18T21:36:37.134Z,13.90
2023-02-18T21:39:05.122Z,13.90
2023-02-18T21:41:33.554Z,13.90
2023-02-18T21:44:00.654Z,13.90
2023-02-18T21:46:28.747Z,13.90
2023-02-18T21:49:12.505Z,13.80
2023-02-18T21:52:08.697Z,13.80
2023-02-18T21:54:40.118Z,13.80
2023-02-18T21:57:13.230Z,13.70
2023-02-18T21:59:41.115Z,13.70
2023-02-18T22:02:12.809Z,13.70
2023-02-18T22:04:39.821Z,13.70
2023-02-18T22:07:06.830Z,13.70
2023-02-18T22:09:33.659Z,13.60
2023-02-18T22:12:00.551Z,13.60
2023-02-18T22:14:27.926Z,13.60
2023-02-18T22:16:54.860Z,13.60
2023-02-18T22:19:21.855Z,13.60
2023-02-18T22:21:49.083Z,13.60
2023-02-18T22:24:16.954Z,13.60
2023-02-18T22:26:45.073Z,13.60
2023-02-18T22:29:15.901Z,13.60
2023-02-18T22:31:42.927Z,13.60
2023-02-18T22:34:10.535Z,13.60
2023-02-18T22:36:37.408Z,13.60
2023-02-18T22:39:05.033Z,13.60
2023-02-18T22:41:32.474Z,13.60
2023-02-18T22:44:00.590Z,13.60
2023-02-18T22:46:28.072Z,13.60
2023-02-18T22:48:55.688Z,13.60
2023-02-18T22:51:25.154Z,13.60
2023-02-18T22:53:52.932Z,13.60
2023-02-18T22:56:20.337Z,13.60
2023-02-18T22:58:48.390Z,13.60
2023-02-18T23:01:26.571Z,13.60
2023-02-18T23:03:53.674Z,13.60
2023-02-18T23:06:21.308Z,13.50
2023-02-18T23:08:48.550Z,13.50
2023-02-18T23:11:17.168Z,13.50
2023-02-18T23:13:44.372Z,13.50
2023-02-18T23:16:12.746Z,13.50
2023-02-18T23:18:40.023Z,13.50
2023-02-18T23:21:23.251Z,13.50
2023-02-18T23:23:51.544Z,13.50
2023-02-18T23:26:19.162Z,13.50
2023-02-18T23:28:49.433Z,13.50
2023-02-18T23:31:19.074Z,13.50
2023-02-18T23:33:47.278Z,13.50
2023-02-18T23:36:15.661Z,13.40
2023-02-18T23:38:42.570Z,13.40
2023-02-18T23:41:09.831Z,13.40
2023-02-18T23:43:36.897Z,13.40
2023-02-18T23:46:03.875Z,13.40
2023-02-18T23:48:30.842Z,13.40
2023-02-18T23:50:58.604Z,13.40
2023-02-18T23:53:26.683Z,13.40
2023-02-18T23:56:01.112Z,13.40
2023-02-18T23:58:27.927Z,13.40
